Time;durP1;ratioP1;P1;durP2;ratioP2;P2;SDS_P1;SDS_P2;PMS_P1;PMS_P2;Temp;Humidity;BMP_temperature;BMP_pressure;BME280_temperature;BME280_humidity;BME280_pressure;Samples;Min_cycle;Max_cycle;Signal;HPM_P1;HPM_P2
2021/12/23 00:01:03;;;;;;;1.40;1.40;;;;;;;;;;5155601;27;20212;-65
2021/12/23 00:03:50;;;;;;;1.50;1.40;;;;;;;;;;5151373;27;20232;-65
2021/12/23 00:06:38;;;;;;;1.27;1.27;;;;;;;;;;5143266;27;20338;-65
2021/12/23 00:09:40;;;;;;;1.30;1.30;;;;;;;;;;5146206;27;20211;-65
2021/12/23 00:12:29;;;;;;;1.70;1.60;;;;;;;;;;5150513;27;20196;-65
2021/12/23 00:15:27;;;;;;;1.40;1.40;;;;;;;;;;5151890;27;20212;-66
2021/12/23 00:18:29;;;;;;;1.40;1.40;;;;;;;;;;5139177;27;20204;-65
2021/12/23 00:24:21;;;;;;;1.13;1.13;;;;;;;;;;5150149;27;20192;-65
2021/12/23 00:27:08;;;;;;;1.17;1.17;;;;;;;;;;5140672;27;20232;-65
2021/12/23 00:29:57;;;;;;;1.20;1.20;;;;;;;;;;5165626;27;20674;-65
2021/12/23 00:32:44;;;;;;;1.40;1.40;;;;;;;;;;5147532;27;20271;-65
2021/12/23 00:35:31;;;;;;;1.17;1.17;;;;;;;;;;5148808;27;20688;-65
2021/12/23 00:38:22;;;;;;;1.43;1.43;;;;;;;;;;5148433;27;20254;-65
2021/12/23 00:41:10;;;;;;;1.47;1.47;;;;;;;;;;5151714;27;20214;-65
2021/12/23 00:43:57;;;;;;;1.30;1.30;;;;;;;;;;5148942;27;20205;-65
2021/12/23 00:46:45;;;;;;;1.40;1.40;;;;;;;;;;5150082;27;20288;-65
2021/12/23 00:49:32;;;;;;;1.10;1.10;;;;;;;;;;5149608;27;20296;-65
2021/12/23 00:52:26;;;;;;;1.23;1.23;;;;;;;;;;5148849;27;20277;-65
2021/12/23 00:55:13;;;;;;;1.20;1.20;;;;;;;;;;5147480;27;20211;-65
2021/12/23 00:58:00;;;;;;;1.23;1.23;;;;;;;;;;5148835;27;20329;-65
2021/12/23 01:00:48;;;;;;;0.90;0.90;;;;;;;;;;5148180;27;20285;-65
2021/12/23 01:03:37;;;;;;;1.10;1.10;;;;;;;;;;5159443;27;20715;-65
2021/12/23 01:06:24;;;;;;;1.20;1.20;;;;;;;;;;5150350;27;20236;-65
2021/12/23 01:09:11;;;;;;;1.10;1.10;;;;;;;;;;5150017;27;20228;-65
2021/12/23 01:11:58;;;;;;;1.30;1.30;;;;;;;;;;5150868;27;20236;-65
2021/12/23 01:14:55;;;;;;;0.90;0.90;;;;;;;;;;5151967;27;20204;-66
2021/12/23 01:17:54;;;;;;;1.20;1.20;;;;;;;;;;5145536;27;20205;-64
2021/12/23 01:20:51;;;;;;;1.23;1.13;;;;;;;;;;5153140;27;20248;-65
2021/12/23 01:23:41;;;;;;;1.00;1.00;;;;;;;;;;5152231;27;20205;-65
2021/12/23 01:26:28;;;;;;;0.97;0.97;;;;;;;;;;5136637;27;20680;-65
2021/12/23 01:29:15;;;;;;;0.90;0.90;;;;;;;;;;5162714;27;20235;-65
2021/12/23 01:32:04;;;;;;;1.07;1.07;;;;;;;;;;5151804;27;20230;-65
2021/12/23 01:34:51;;;;;;;1.00;1.00;;;;;;;;;;5148071;27;20201;-65
2021/12/23 01:37:39;;;;;;;0.63;0.63;;;;;;;;;;5160719;27;20221;-65
2021/12/23 01:40:26;;;;;;;1.00;1.00;;;;;;;;;;5154323;27;20772;-65
2021/12/23 01:43:14;;;;;;;0.90;0.90;;;;;;;;;;5146952;27;20261;-65
2021/12/23 01:46:01;;;;;;;0.80;0.80;;;;;;;;;;5149590;27;20213;-65
2021/12/23 01:48:49;;;;;;;1.07;1.07;;;;;;;;;;5150031;27;20211;-65
2021/12/23 01:51:36;;;;;;;0.90;0.90;;;;;;;;;;5148549;27;20270;-66
2021/12/23 01:54:24;;;;;;;0.90;0.90;;;;;;;;;;5154983;27;20209;-64
2021/12/23 01:57:13;;;;;;;1.03;1.03;;;;;;;;;;5157869;27;20676;-65
2021/12/23 02:00:01;;;;;;;0.80;0.80;;;;;;;;;;5168128;27;20232;-65
2021/12/23 02:02:51;;;;;;;1.00;1.00;;;;;;;;;;5150276;27;20791;-65
2021/12/23 02:05:38;;;;;;;0.90;0.90;;;;;;;;;;5150810;27;20232;-64
2021/12/23 02:08:25;;;;;;;0.90;0.90;;;;;;;;;;5160127;27;20198;-65
2021/12/23 02:11:15;;;;;;;0.70;0.70;;;;;;;;;;5150881;27;20197;-66
2021/12/23 02:14:02;;;;;;;0.80;0.80;;;;;;;;;;5160101;27;20201;-65
2021/12/23 02:16:49;;;;;;;0.90;0.90;;;;;;;;;;5163767;27;20249;-65
2021/12/23 02:19:36;;;;;;;0.80;0.80;;;;;;;;;;5151389;27;20634;-64
2021/12/23 02:22:24;;;;;;;0.87;0.87;;;;;;;;;;5164341;27;20309;-65
2021/12/23 02:25:12;;;;;;;0.70;0.70;;;;;;;;;;5163308;27;20632;-65
2021/12/23 02:28:04;;;;;;;0.90;0.90;;;;;;;;;;5151121;27;20228;-65
2021/12/23 02:30:52;;;;;;;0.90;0.90;;;;;;;;;;5134915;27;20224;-65
2021/12/23 02:33:39;;;;;;;0.70;0.70;;;;;;;;;;5163058;27;20207;-65
2021/12/23 02:36:26;;;;;;;0.70;0.70;;;;;;;;;;5152437;27;20211;-65
2021/12/23 02:39:14;;;;;;;0.70;0.70;;;;;;;;;;5148776;27;20288;-65
2021/12/23 02:42:02;;;;;;;1.00;1.00;;;;;;;;;;5153918;27;20279;-65
2021/12/23 02:44:49;;;;;;;0.70;0.70;;;;;;;;;;5141122;27;20261;-65
2021/12/23 02:47:38;;;;;;;0.90;0.90;;;;;;;;;;5169675;27;20600;-65
2021/12/23 02:50:25;;;;;;;0.83;0.83;;;;;;;;;;5158223;27;20287;-65
2021/12/23 02:53:12;;;;;;;0.70;0.70;;;;;;;;;;5157509;27;20732;-64
2021/12/23 02:56:02;;;;;;;0.80;0.80;;;;;;;;;;5158723;27;20303;-66
2021/12/23 02:58:50;;;;;;;0.63;0.63;;;;;;;;;;5150061;27;20224;-65
2021/12/23 03:01:37;;;;;;;0.70;0.70;;;;;;;;;;5151558;27;20493;-65
2021/12/23 03:04:24;;;;;;;0.90;0.90;;;;;;;;;;5166098;27;20251;-65
2021/12/23 03:07:11;;;;;;;0.60;0.60;;;;;;;;;;5153775;27;20197;-65
2021/12/23 03:09:58;;;;;;;0.60;0.60;;;;;;;;;;5156113;27;20684;-65
2021/12/23 03:12:46;;;;;;;0.70;0.70;;;;;;;;;;5151071;27;20264;-65
2021/12/23 03:15:33;;;;;;;0.70;0.70;;;;;;;;;;5146852;27;20294;-65
2021/12/23 03:18:20;;;;;;;0.53;0.53;;;;;;;;;;5162137;27;20210;-64
2021/12/23 03:21:07;;;;;;;0.90;0.90;;;;;;;;;;5159290;27;20257;-65
2021/12/23 03:23:54;;;;;;;0.70;0.70;;;;;;;;;;5151991;27;20300;-65
2021/12/23 03:26:41;;;;;;;0.80;0.80;;;;;;;;;;5146766;27;20241;-66
2021/12/23 03:29:29;;;;;;;0.80;0.80;;;;;;;;;;5150205;27;20293;-64
2021/12/23 03:32:16;;;;;;;0.80;0.80;;;;;;;;;;5146884;27;20201;-65
2021/12/23 03:35:04;;;;;;;0.90;0.90;;;;;;;;;;5134085;27;20205;-65
2021/12/23 03:37:51;;;;;;;0.80;0.80;;;;;;;;;;5149743;27;20687;-65
2021/12/23 03:40:38;;;;;;;0.80;0.80;;;;;;;;;;5149532;27;20716;-65
2021/12/23 03:43:26;;;;;;;0.70;0.70;;;;;;;;;;5148545;27;20278;-65
2021/12/23 03:46:15;;;;;;;0.77;0.77;;;;;;;;;;5149174;27;20216;-64
2021/12/23 03:49:02;;;;;;;0.70;0.70;;;;;;;;;;5139460;27;20235;-65
2021/12/23 03:51:48;;;;;;;0.70;0.70;;;;;;;;;;5150068;27;20282;-66
2021/12/23 03:54:35;;;;;;;0.70;0.70;;;;;;;;;;5150883;27;20703;-65
2021/12/23 03:57:23;;;;;;;0.70;0.70;;;;;;;;;;5147989;27;20204;-65
2021/12/23 04:00:12;;;;;;;0.70;0.70;;;;;;;;;;5151120;27;20231;-65
2021/12/23 04:03:00;;;;;;;0.90;0.90;;;;;;;;;;5145235;27;20274;-65
2021/12/23 04:05:47;;;;;;;0.70;0.70;;;;;;;;;;5148232;27;20725;-65
2021/12/23 04:08:34;;;;;;;0.70;0.70;;;;;;;;;;5150737;27;20300;-66
2021/12/23 04:11:22;;;;;;;0.70;0.70;;;;;;;;;;5144334;27;20219;-64
2021/12/23 04:14:09;;;;;;;0.83;0.83;;;;;;;;;;5147486;27;20237;-65
2021/12/23 04:16:56;;;;;;;0.70;0.70;;;;;;;;;;5150421;27;20268;-65
2021/12/23 04:19:46;;;;;;;0.80;0.80;;;;;;;;;;5149536;27;20296;-65
2021/12/23 04:22:33;;;;;;;1.10;1.10;;;;;;;;;;5143955;27;20686;-65
2021/12/23 04:25:23;;;;;;;0.90;0.90;;;;;;;;;;5158730;27;20291;-64
2021/12/23 04:28:10;;;;;;;0.70;0.70;;;;;;;;;;5151212;27;20280;-64
2021/12/23 04:30:56;;;;;;;1.13;1.13;;;;;;;;;;5131771;27;20185;-65
2021/12/23 04:33:44;;;;;;;0.90;0.90;;;;;;;;;;5157623;27;20215;-65
2021/12/23 04:36:33;;;;;;;1.00;1.00;;;;;;;;;;5154029;27;20293;-65
2021/12/23 04:39:20;;;;;;;0.80;0.80;;;;;;;;;;5149915;27;20210;-64
2021/12/23 04:42:07;;;;;;;1.10;1.10;;;;;;;;;;5151996;27;20261;-65
2021/12/23 04:44:54;;;;;;;0.90;0.90;;;;;;;;;;5152412;27;20209;-65
2021/12/23 04:47:41;;;;;;;0.87;0.87;;;;;;;;;;5171176;27;20326;-65
2021/12/23 04:50:28;;;;;;;1.00;1.00;;;;;;;;;;5150390;27;20210;-65
2021/12/23 04:53:17;;;;;;;0.80;0.80;;;;;;;;;;5153799;27;20597;-65
2021/12/23 04:56:04;;;;;;;1.43;1.33;;;;;;;;;;5161007;27;20288;-65
2021/12/23 04:58:51;;;;;;;1.43;1.33;;;;;;;;;;5152266;27;20328;-65
2021/12/23 05:01:38;;;;;;;1.70;1.60;;;;;;;;;;5158934;27;20317;-64
2021/12/23 05:04:25;;;;;;;1.40;1.37;;;;;;;;;;5150232;27;20333;-65
2021/12/23 05:07:12;;;;;;;1.40;1.30;;;;;;;;;;5152165;27;20206;-65
2021/12/23 05:10:00;;;;;;;1.47;1.40;;;;;;;;;;5148687;27;20201;-65
2021/12/23 05:12:47;;;;;;;1.40;1.40;;;;;;;;;;5151653;27;20209;-65
2021/12/23 05:15:34;;;;;;;1.60;1.50;;;;;;;;;;5150420;27;20204;-65
2021/12/23 05:18:21;;;;;;;1.60;1.50;;;;;;;;;;5136253;27;20236;-65
2021/12/23 05:21:08;;;;;;;1.60;1.50;;;;;;;;;;5162473;27;20229;-65
2021/12/23 05:23:55;;;;;;;1.40;1.40;;;;;;;;;;5156632;27;20236;-64
2021/12/23 05:26:43;;;;;;;1.60;1.50;;;;;;;;;;5170664;27;20315;-65
2021/12/23 05:29:30;;;;;;;1.80;1.70;;;;;;;;;;5152294;27;20324;-66
2021/12/23 05:32:17;;;;;;;1.53;1.43;;;;;;;;;;5145180;27;20295;-65
2021/12/23 05:35:05;;;;;;;1.47;1.47;;;;;;;;;;5171053;27;20698;-65
2021/12/23 05:37:53;;;;;;;1.60;1.50;;;;;;;;;;5156061;27;20247;-65
2021/12/23 05:40:40;;;;;;;1.60;1.50;;;;;;;;;;5161192;27;20297;-66
2021/12/23 05:43:28;;;;;;;1.40;1.40;;;;;;;;;;5170003;27;20561;-65
2021/12/23 05:46:15;;;;;;;1.37;1.30;;;;;;;;;;5151318;27;20283;-65
2021/12/23 05:49:02;;;;;;;1.30;1.30;;;;;;;;;;5151003;27;20282;-64
2021/12/23 05:51:49;;;;;;;1.70;1.60;;;;;;;;;;5165217;27;20204;-65
2021/12/23 05:54:36;;;;;;;1.70;1.60;;;;;;;;;;5152154;27;20300;-65
2021/12/23 05:57:23;;;;;;;1.23;1.23;;;;;;;;;;5165922;27;21318;-64
2021/12/23 06:00:15;;;;;;;1.10;1.10;;;;;;;;;;5152517;27;20233;-66
2021/12/23 06:03:03;;;;;;;1.17;1.17;;;;;;;;;;5145025;27;20699;-64
2021/12/23 06:05:50;;;;;;;1.63;1.53;;;;;;;;;;5117071;27;20253;-65
2021/12/23 06:08:37;;;;;;;1.20;1.20;;;;;;;;;;5134103;27;20714;-65
2021/12/23 06:11:24;;;;;;;1.27;1.27;;;;;;;;;;5123286;27;20776;-65
2021/12/23 06:14:11;;;;;;;1.30;1.30;;;;;;;;;;5113557;27;20677;-64
2021/12/23 06:17:01;;;;;;;1.37;1.37;;;;;;;;;;5131480;27;20358;-67
2021/12/23 06:19:48;;;;;;;1.30;1.30;;;;;;;;;;5128271;27;20266;-64
2021/12/23 06:22:36;;;;;;;1.80;1.00;;;;;;;;;;5147963;27;20232;-65
2021/12/23 06:25:23;;;;;;;1.00;1.00;;;;;;;;;;5136377;27;20286;-66
2021/12/23 06:28:10;;;;;;;1.10;1.10;;;;;;;;;;5137121;27;20270;-65
2021/12/23 06:30:57;;;;;;;1.20;1.20;;;;;;;;;;5133257;27;20293;-65
2021/12/23 06:33:45;;;;;;;1.10;1.10;;;;;;;;;;5129392;27;20285;-65
2021/12/23 06:36:32;;;;;;;1.13;1.13;;;;;;;;;;5129259;27;20235;-65
2021/12/23 06:39:19;;;;;;;1.17;1.17;;;;;;;;;;5100797;27;20664;-67
2021/12/23 06:42:07;;;;;;;1.07;1.07;;;;;;;;;;4883611;28;20447;-67
2021/12/23 06:44:54;;;;;;;1.20;1.20;;;;;;;;;;4966731;28;20680;-66
2021/12/23 06:47:43;;;;;;;0.93;0.93;;;;;;;;;;5069195;28;20219;-64
2021/12/23 06:50:32;;;;;;;1.20;1.20;;;;;;;;;;5068268;28;20215;-65
2021/12/23 06:53:19;;;;;;;1.00;1.00;;;;;;;;;;5065090;28;20683;-65
2021/12/23 06:56:06;;;;;;;1.00;1.00;;;;;;;;;;5068582;28;20214;-66
2021/12/23 06:58:53;;;;;;;1.27;1.17;;;;;;;;;;5068717;28;20553;-65
2021/12/23 07:01:40;;;;;;;1.20;1.20;;;;;;;;;;5068408;28;20314;-65
2021/12/23 07:04:31;;;;;;;1.10;1.10;;;;;;;;;;5068221;28;20245;-65
2021/12/23 07:07:27;;;;;;;1.00;1.00;;;;;;;;;;5068229;28;20223;-65
2021/12/23 07:10:14;;;;;;;0.70;0.70;;;;;;;;;;5065905;28;20212;-66
2021/12/23 07:13:01;;;;;;;1.50;1.40;;;;;;;;;;5064487;28;20211;-65
2021/12/23 07:15:48;;;;;;;0.90;0.90;;;;;;;;;;5060143;28;20661;-66
2021/12/23 07:18:35;;;;;;;0.90;0.90;;;;;;;;;;5068878;28;20205;-65
2021/12/23 07:21:22;;;;;;;0.90;0.90;;;;;;;;;;5066472;28;20268;-65
2021/12/23 07:24:10;;;;;;;0.60;0.60;;;;;;;;;;5068733;28;20204;-65
2021/12/23 07:26:58;;;;;;;0.90;0.90;;;;;;;;;;5067446;28;20726;-65
2021/12/23 07:29:44;;;;;;;0.97;0.97;;;;;;;;;;5059370;28;20276;-65
2021/12/23 07:32:32;;;;;;;1.00;1.00;;;;;;;;;;5068112;28;20257;-66
2021/12/23 07:35:19;;;;;;;1.00;1.00;;;;;;;;;;5067916;28;20755;-65
2021/12/23 07:38:06;;;;;;;0.80;0.80;;;;;;;;;;5055638;28;20662;-69
2021/12/23 07:40:55;;;;;;;1.00;1.00;;;;;;;;;;5068270;28;20269;-70
2021/12/23 07:43:59;;;;;;;0.93;0.93;;;;;;;;;;5067500;28;20220;-70
2021/12/23 07:46:46;;;;;;;1.20;1.20;;;;;;;;;;5054659;28;20317;-70
2021/12/23 07:49:33;;;;;;;1.03;1.03;;;;;;;;;;5067728;28;20321;-70
2021/12/23 07:52:21;;;;;;;1.30;1.30;;;;;;;;;;5067890;28;20904;-66
2021/12/23 07:55:10;;;;;;;1.40;1.40;;;;;;;;;;5069030;28;20243;-65
2021/12/23 07:57:58;;;;;;;1.60;1.50;;;;;;;;;;5066881;28;20316;-70
2021/12/23 08:00:45;;;;;;;1.47;1.37;;;;;;;;;;5068256;28;20292;-70
2021/12/23 08:03:32;;;;;;;1.50;1.40;;;;;;;;;;5068242;28;20257;-70
2021/12/23 08:06:19;;;;;;;1.50;1.40;;;;;;;;;;5067733;28;20270;-70
2021/12/23 08:09:06;;;;;;;1.60;1.60;;;;;;;;;;5066880;28;20261;-69
2021/12/23 08:11:53;;;;;;;1.47;1.43;;;;;;;;;;5067869;28;20204;-70
2021/12/23 08:14:42;;;;;;;1.80;1.70;;;;;;;;;;5069172;28;20223;-70
2021/12/23 08:17:29;;;;;;;1.50;1.50;;;;;;;;;;5068719;28;20230;-65
2021/12/23 08:20:17;;;;;;;1.60;1.50;;;;;;;;;;5071110;28;20216;-70
2021/12/23 08:23:04;;;;;;;1.50;1.50;;;;;;;;;;5072049;28;20247;-71
2021/12/23 08:25:52;;;;;;;1.60;1.60;;;;;;;;;;5072183;28;20253;-70
2021/12/23 08:28:39;;;;;;;1.70;1.60;;;;;;;;;;5070184;28;20338;-70
2021/12/23 08:31:28;;;;;;;1.50;1.50;;;;;;;;;;5072190;28;20601;-70
2021/12/23 08:34:15;;;;;;;1.70;1.60;;;;;;;;;;5072343;28;20724;-69
2021/12/23 08:37:02;;;;;;;1.30;1.30;;;;;;;;;;5070089;28;20696;-70
2021/12/23 08:39:50;;;;;;;1.57;1.47;;;;;;;;;;5055582;28;20215;-70
2021/12/23 08:42:37;;;;;;;1.50;1.50;;;;;;;;;;5070941;28;20318;-70
2021/12/23 08:45:25;;;;;;;1.30;1.30;;;;;;;;;;5070936;28;20242;-70
2021/12/23 08:48:14;;;;;;;1.43;1.43;;;;;;;;;;5072087;28;20214;-69
2021/12/23 08:51:01;;;;;;;1.63;1.53;;;;;;;;;;5070137;28;20629;-70
2021/12/23 08:53:48;;;;;;;1.60;1.60;;;;;;;;;;5061533;28;20209;-69
2021/12/23 08:56:35;;;;;;;1.60;1.60;;;;;;;;;;5070229;28;20258;-71
2021/12/23 08:59:21;;;;;;;1.57;1.47;;;;;;;;;;5069600;28;20241;-65
2021/12/23 09:02:09;;;;;;;1.40;1.40;;;;;;;;;;5071393;28;20314;-66
2021/12/23 09:04:57;;;;;;;1.50;1.50;;;;;;;;;;5070554;28;20227;-65
2021/12/23 09:07:44;;;;;;;1.70;1.60;;;;;;;;;;5070619;28;20631;-65
2021/12/23 09:10:31;;;;;;;1.50;1.40;;;;;;;;;;5067719;28;20208;-65
2021/12/23 09:13:20;;;;;;;1.50;1.43;;;;;;;;;;5069057;28;20689;-64
2021/12/23 09:16:06;;;;;;;1.70;1.60;;;;;;;;;;5061699;28;20635;-65
2021/12/23 09:18:54;;;;;;;1.80;1.70;;;;;;;;;;5071358;28;20292;-64
2021/12/23 09:21:42;;;;;;;1.90;1.80;;;;;;;;;;5068618;28;20271;-65
2021/12/23 09:24:31;;;;;;;1.60;1.60;;;;;;;;;;5069428;28;20215;-65
2021/12/23 09:27:27;;;;;;;1.23;1.23;;;;;;;;;;5071159;28;20209;-65
2021/12/23 09:33:25;;;;;;;1.70;1.60;;;;;;;;;;5010682;28;20208;-65
2021/12/23 09:36:14;;;;;;;1.77;1.67;;;;;;;;;;5070808;28;20254;-65
2021/12/23 09:39:04;;;;;;;1.80;1.70;;;;;;;;;;5068584;28;20805;-65
2021/12/23 09:41:51;;;;;;;1.90;1.80;;;;;;;;;;5068502;28;20320;-66
2021/12/23 09:44:38;;;;;;;1.73;1.63;;;;;;;;;;5069289;28;20344;-67
2021/12/23 09:47:26;;;;;;;1.43;1.33;;;;;;;;;;5070417;28;20209;-65
2021/12/23 09:50:16;;;;;;;1.77;1.67;;;;;;;;;;5071141;28;20247;-65
2021/12/23 09:53:05;;;;;;;2.00;1.90;;;;;;;;;;5071262;28;20215;-65
2021/12/23 09:55:54;;;;;;;1.60;1.50;;;;;;;;;;5070417;28;20200;-65
2021/12/23 09:58:41;;;;;;;1.77;1.67;;;;;;;;;;5069206;28;20211;-64
2021/12/23 10:01:30;;;;;;;1.70;1.60;;;;;;;;;;5067430;28;20252;-65
2021/12/23 10:04:17;;;;;;;1.70;1.60;;;;;;;;;;5069241;28;20235;-65
2021/12/23 10:07:04;;;;;;;1.47;1.37;;;;;;;;;;5069329;28;20255;-65
2021/12/23 10:10:00;;;;;;;1.50;1.40;;;;;;;;;;5067653;28;20223;-64
2021/12/23 10:31:29;;;;;;;1.50;1.50;;;;;;;;;;5069075;28;20204;-65
2021/12/23 10:37:25;;;;;;;1.40;1.40;;;;;;;;;;5067391;28;20209;-64
2021/12/23 10:40:14;;;;;;;1.73;1.70;;;;;;;;;;5069429;28;20286;-64
2021/12/23 10:43:01;;;;;;;1.50;1.50;;;;;;;;;;5057531;28;20259;-65
2021/12/23 10:45:55;;;;;;;1.80;1.70;;;;;;;;;;5068141;28;20214;-64
2021/12/23 10:48:48;;;;;;;2.13;2.03;;;;;;;;;;5069303;28;20234;-64
2021/12/23 10:51:57;;;;;;;2.07;1.90;;;;;;;;;;5069251;28;20204;-65
2021/12/23 10:58:04;;;;;;;2.30;2.10;;;;;;;;;;5068055;28;21471;-64
2021/12/23 11:00:54;;;;;;;1.83;1.73;;;;;;;;;;5068513;28;20209;-64
2021/12/23 11:03:45;;;;;;;2.47;2.20;;;;;;;;;;5068268;28;20244;-64
2021/12/23 11:06:37;;;;;;;2.07;1.97;;;;;;;;;;5059906;28;20737;-64
2021/12/23 11:09:37;;;;;;;2.10;2.00;;;;;;;;;;5064967;28;20296;-64
2021/12/23 11:37:51;;;;;;;2.40;2.30;;;;;;;;;;5044773;28;20715;-65
2021/12/23 11:43:50;;;;;;;2.17;2.07;;;;;;;;;;5066197;28;20634;-65
2021/12/23 11:46:47;;;;;;;2.80;2.60;;;;;;;;;;5057336;28;20735;-65
2021/12/23 11:49:39;;;;;;;2.77;2.57;;;;;;;;;;5068853;28;20209;-65
2021/12/23 11:52:26;;;;;;;2.63;2.40;;;;;;;;;;5066308;28;20567;-65
2021/12/23 11:55:13;;;;;;;2.90;2.70;;;;;;;;;;5068489;28;20215;-66
2021/12/23 11:58:00;;;;;;;2.83;2.63;;;;;;;;;;5068497;28;20305;-65
2021/12/23 12:01:01;;;;;;;2.83;2.63;;;;;;;;;;5067004;28;20214;-65
2021/12/23 12:03:58;;;;;;;2.80;2.60;;;;;;;;;;5068915;28;20303;-65
2021/12/23 12:06:48;;;;;;;2.80;2.60;;;;;;;;;;5067700;28;20286;-65
2021/12/23 12:09:35;;;;;;;3.10;2.90;;;;;;;;;;5061461;28;20208;-65
2021/12/23 12:12:22;;;;;;;3.00;2.80;;;;;;;;;;5066659;28;20197;-65
2021/12/23 12:15:09;;;;;;;2.90;2.70;;;;;;;;;;5067459;28;20672;-65
2021/12/23 12:18:03;;;;;;;3.10;2.90;;;;;;;;;;5068529;28;20674;-64
2021/12/23 12:20:54;;;;;;;2.90;2.70;;;;;;;;;;5067616;28;20670;-64
2021/12/23 12:23:44;;;;;;;3.17;2.93;;;;;;;;;;5066461;28;20590;-65
2021/12/23 12:26:32;;;;;;;2.97;2.77;;;;;;;;;;5067287;28;20246;-65
2021/12/23 12:29:21;;;;;;;2.90;2.70;;;;;;;;;;5068732;28;20204;-64
2021/12/23 12:32:28;;;;;;;3.03;2.83;;;;;;;;;;5066041;28;20204;-64
2021/12/23 12:35:17;;;;;;;3.00;2.80;;;;;;;;;;5063141;28;20765;-65
2021/12/23 12:38:12;;;;;;;2.97;2.67;;;;;;;;;;5068174;28;20220;-64
2021/12/23 12:41:03;;;;;;;3.27;2.97;;;;;;;;;;5067138;28;20216;-64
2021/12/23 12:43:57;;;;;;;3.10;2.90;;;;;;;;;;5067459;28;20235;-64
2021/12/23 12:46:55;;;;;;;3.10;2.90;;;;;;;;;;5067649;28;20263;-66
2021/12/23 12:49:45;;;;;;;2.93;2.73;;;;;;;;;;5066573;28;20214;-65
2021/12/23 12:52:35;;;;;;;2.97;2.77;;;;;;;;;;5068348;28;20237;-64
2021/12/23 12:55:25;;;;;;;3.13;2.93;;;;;;;;;;5065841;28;20209;-65
2021/12/23 12:58:14;;;;;;;3.40;3.10;;;;;;;;;;5065637;28;20686;-64
2021/12/23 13:01:03;;;;;;;3.40;3.10;;;;;;;;;;5070018;28;20291;-65
2021/12/23 13:03:54;;;;;;;2.90;2.70;;;;;;;;;;5070588;28;20708;-65
2021/12/23 13:06:41;;;;;;;3.07;2.87;;;;;;;;;;5070504;28;20224;-65
2021/12/23 13:09:31;;;;;;;3.10;2.90;;;;;;;;;;5070936;28;20337;-65
2021/12/23 13:12:34;;;;;;;3.10;2.80;;;;;;;;;;5069608;28;20210;-64
2021/12/23 13:15:24;;;;;;;2.80;2.70;;;;;;;;;;5069665;28;20216;-65
2021/12/23 13:18:21;;;;;;;3.23;2.90;;;;;;;;;;5070397;28;20290;-65
2021/12/23 13:21:09;;;;;;;3.33;3.13;;;;;;;;;;5068366;28;20210;-65
2021/12/23 13:24:02;;;;;;;3.17;2.97;;;;;;;;;;5070416;28;20232;-65
2021/12/23 13:26:50;;;;;;;3.13;2.93;;;;;;;;;;5083024;28;20208;-64
2021/12/23 13:29:40;;;;;;;3.10;2.90;;;;;;;;;;5072826;28;20212;-65
2021/12/23 13:32:29;;;;;;;3.30;3.10;;;;;;;;;;5065941;28;20221;-64
2021/12/23 13:35:16;;;;;;;3.40;3.20;;;;;;;;;;5071115;28;20679;-65
2021/12/23 13:38:04;;;;;;;3.50;3.20;;;;;;;;;;5070484;28;20289;-65
2021/12/23 13:40:50;;;;;;;3.77;3.47;;;;;;;;;;5069633;28;20592;-64
2021/12/23 13:43:37;;;;;;;3.07;2.87;;;;;;;;;;5069296;28;20687;-64
2021/12/23 13:46:26;;;;;;;3.20;3.00;;;;;;;;;;5060597;28;20212;-65
2021/12/23 13:49:14;;;;;;;3.50;3.20;;;;;;;;;;5070083;28;20697;-65
2021/12/23 13:52:03;;;;;;;3.93;3.50;;;;;;;;;;5068845;28;20402;-65
2021/12/23 13:54:54;;;;;;;3.33;3.13;;;;;;;;;;5069992;28;20331;-65
2021/12/23 13:57:46;;;;;;;3.20;3.00;;;;;;;;;;5069205;28;20219;-64
2021/12/23 14:00:35;;;;;;;3.33;3.13;;;;;;;;;;5068782;28;20212;-65
2021/12/23 14:03:22;;;;;;;3.77;3.43;;;;;;;;;;5061704;28;20704;-64
2021/12/23 14:06:14;;;;;;;3.60;3.27;;;;;;;;;;5069106;28;20293;-65
2021/12/23 14:09:01;;;;;;;3.60;3.30;;;;;;;;;;5066480;28;20281;-64
2021/12/23 14:11:49;;;;;;;3.33;3.13;;;;;;;;;;5066836;28;20243;-65
2021/12/23 14:14:36;;;;;;;3.60;3.30;;;;;;;;;;5067374;28;20205;-65
2021/12/23 14:17:25;;;;;;;3.97;3.67;;;;;;;;;;5068059;28;20328;-64
2021/12/23 14:23:24;;;;;;;3.40;3.10;;;;;;;;;;5067598;28;20233;-65
2021/12/23 14:26:20;;;;;;;3.50;3.30;;;;;;;;;;5068842;28;20290;-64
2021/12/23 14:29:10;;;;;;;3.37;3.17;;;;;;;;;;5069351;28;20211;-64
2021/12/23 14:31:57;;;;;;;3.30;3.10;;;;;;;;;;5068215;28;20203;-64
2021/12/23 14:34:44;;;;;;;4.43;3.60;;;;;;;;;;5068088;28;20297;-65
2021/12/23 14:37:31;;;;;;;3.43;3.23;;;;;;;;;;5067444;28;20240;-65
2021/12/23 14:40:24;;;;;;;3.43;3.23;;;;;;;;;;5067389;28;20221;-64
2021/12/23 14:43:11;;;;;;;3.93;3.57;;;;;;;;;;5067463;28;20769;-65
2021/12/23 14:45:58;;;;;;;3.57;3.27;;;;;;;;;;5068974;28;20211;-65
2021/12/23 14:48:56;;;;;;;3.70;3.43;;;;;;;;;;5068074;28;20207;-64
2021/12/23 14:51:44;;;;;;;3.90;3.60;;;;;;;;;;5069593;28;20212;-64
2021/12/23 14:54:31;;;;;;;3.90;3.60;;;;;;;;;;5068234;28;20214;-65
2021/12/23 14:57:21;;;;;;;4.20;3.90;;;;;;;;;;5068734;28;20203;-65
2021/12/23 15:00:12;;;;;;;3.50;3.30;;;;;;;;;;5066110;28;20208;-64
2021/12/23 15:03:04;;;;;;;3.60;3.30;;;;;;;;;;5065203;28;20248;-65
2021/12/23 15:05:52;;;;;;;3.80;3.50;;;;;;;;;;5069924;28;20307;-65
2021/12/23 15:08:45;;;;;;;3.87;3.63;;;;;;;;;;5068731;28;20208;-64
2021/12/23 15:11:32;;;;;;;3.60;3.40;;;;;;;;;;5063764;28;20218;-65
2021/12/23 15:14:23;;;;;;;3.37;3.17;;;;;;;;;;5069438;28;20254;-66
2021/12/23 15:17:15;;;;;;;3.63;3.33;;;;;;;;;;5068612;28;20207;-65
2021/12/23 15:20:18;;;;;;;3.33;3.13;;;;;;;;;;5067427;28;20218;-64
2021/12/23 15:23:04;;;;;;;3.53;3.33;;;;;;;;;;5068202;28;20263;-65
2021/12/23 15:25:51;;;;;;;3.37;3.17;;;;;;;;;;5067478;28;20215;-66
2021/12/23 15:28:38;;;;;;;3.10;2.90;;;;;;;;;;5060091;28;20247;-65
2021/12/23 15:31:27;;;;;;;3.50;3.30;;;;;;;;;;5068641;28;20284;-65
2021/12/23 15:34:14;;;;;;;3.93;3.63;;;;;;;;;;5067467;28;20208;-65
2021/12/23 15:37:01;;;;;;;3.50;3.30;;;;;;;;;;5068356;28;20203;-65
2021/12/23 15:39:48;;;;;;;3.57;3.27;;;;;;;;;;5067374;28;20229;-64
2021/12/23 15:42:35;;;;;;;3.30;3.10;;;;;;;;;;5066959;28;20340;-64
2021/12/23 15:45:23;;;;;;;3.13;2.93;;;;;;;;;;5068816;28;20215;-64
2021/12/23 15:48:11;;;;;;;3.27;3.07;;;;;;;;;;5066544;28;20211;-65
2021/12/23 15:51:00;;;;;;;3.60;3.40;;;;;;;;;;5068676;28;20800;-65
2021/12/23 15:53:47;;;;;;;3.53;3.23;;;;;;;;;;5058149;28;20209;-65
2021/12/23 15:56:35;;;;;;;3.37;3.17;;;;;;;;;;5067094;28;20330;-64
2021/12/23 15:59:22;;;;;;;3.27;3.07;;;;;;;;;;5067751;28;20211;-65
2021/12/23 16:02:10;;;;;;;3.53;3.30;;;;;;;;;;5067795;28;20255;-65
2021/12/23 16:07:16;;;;;;;3.43;3.23;;;;;;;;;;5066981;28;20228;-65
2021/12/23 16:08:06;;;;;;;3.40;3.20;;;;;;;;;;5055876;28;20215;-65
2021/12/23 16:10:53;;;;;;;3.33;3.13;;;;;;;;;;5064401;28;20203;-64
2021/12/23 16:13:40;;;;;;;3.40;3.20;;;;;;;;;;5065528;28;20239;-64
2021/12/23 16:16:27;;;;;;;3.37;3.17;;;;;;;;;;5061090;28;20241;-65
2021/12/23 16:19:14;;;;;;;3.27;3.07;;;;;;;;;;5067141;28;20259;-65
2021/12/23 16:22:02;;;;;;;3.90;3.60;;;;;;;;;;5065992;28;20215;-66
2021/12/23 16:24:49;;;;;;;3.10;2.90;;;;;;;;;;5064097;28;20267;-65
2021/12/23 16:27:37;;;;;;;3.30;3.00;;;;;;;;;;5067256;28;20671;-64
2021/12/23 16:30:27;;;;;;;3.40;3.20;;;;;;;;;;5066412;28;20590;-64
2021/12/23 16:33:16;;;;;;;3.20;3.00;;;;;;;;;;5067963;28;20278;-65
2021/12/23 16:36:03;;;;;;;3.60;3.40;;;;;;;;;;5069427;28;20207;-65
2021/12/23 16:38:53;;;;;;;3.43;3.23;;;;;;;;;;5071690;28;20290;-64
2021/12/23 16:41:40;;;;;;;3.87;3.57;;;;;;;;;;5069600;28;20255;-64
2021/12/23 16:44:27;;;;;;;3.40;3.20;;;;;;;;;;5065978;28;20368;-64
2021/12/23 16:47:14;;;;;;;3.70;3.40;;;;;;;;;;5070114;28;20545;-65
2021/12/23 16:50:01;;;;;;;3.33;3.13;;;;;;;;;;5068908;28;20243;-64
2021/12/23 16:52:51;;;;;;;3.33;3.13;;;;;;;;;;5064195;28;20208;-65
2021/12/23 16:56:03;;;;;;;4.10;3.70;;;;;;;;;;5071172;28;20211;-64
2021/12/23 16:58:50;;;;;;;3.70;3.50;;;;;;;;;;5070626;28;20742;-67
2021/12/23 17:01:37;;;;;;;3.67;3.37;;;;;;;;;;5071233;28;20405;-64
2021/12/23 17:04:24;;;;;;;3.63;3.33;;;;;;;;;;5070634;28;20774;-65
2021/12/23 17:07:11;;;;;;;3.87;3.57;;;;;;;;;;5068499;28;20738;-65
2021/12/23 17:09:58;;;;;;;3.77;3.47;;;;;;;;;;5068886;28;20216;-65
2021/12/23 17:12:46;;;;;;;4.57;4.17;;;;;;;;;;5068456;28;20613;-65
2021/12/23 17:15:33;;;;;;;4.07;3.77;;;;;;;;;;5070171;28;20291;-65
2021/12/23 17:18:31;;;;;;;3.90;3.60;;;;;;;;;;5069896;28;20354;-65
2021/12/23 17:24:27;;;;;;;4.13;3.73;;;;;;;;;;5063575;28;20267;-64
2021/12/23 17:27:14;;;;;;;3.63;3.43;;;;;;;;;;5057428;28;20275;-65
2021/12/23 17:30:05;;;;;;;4.13;3.83;;;;;;;;;;5069975;28;20217;-65
2021/12/23 17:32:52;;;;;;;4.30;4.00;;;;;;;;;;5068998;28;20207;-65
2021/12/23 17:35:43;;;;;;;4.20;3.90;;;;;;;;;;5071557;28;20680;-65
2021/12/23 17:38:30;;;;;;;4.30;4.00;;;;;;;;;;5068666;28;20215;-65
2021/12/23 17:41:17;;;;;;;3.90;3.60;;;;;;;;;;5069622;28;20218;-65
2021/12/23 17:44:05;;;;;;;4.00;3.70;;;;;;;;;;5083239;28;20311;-64
2021/12/23 17:46:54;;;;;;;4.37;4.07;;;;;;;;;;5070724;28;20299;-65
2021/12/23 17:49:41;;;;;;;3.60;3.40;;;;;;;;;;5064191;28;20215;-65
2021/12/23 17:52:28;;;;;;;4.10;3.80;;;;;;;;;;5069546;28;20213;-65
2021/12/23 17:55:15;;;;;;;4.37;4.03;;;;;;;;;;5062192;28;20216;-65
2021/12/23 17:58:01;;;;;;;4.37;4.07;;;;;;;;;;5068191;28;20288;-64